TimeEST,TemperatureF,Dew PointF,Humidity,Sea Level PressureIn,VisibilityMPH,Wind Direction,Wind SpeedMPH,Gust SpeedMPH,PrecipitationIn,Events,Conditions,WindDirDegrees,DateUTC
12:18 AM,48.2,48.2,100,30.02,0.5,Calm,Calm,-,N/A,,Light Drizzle,0,2013-01-14 05:18:00
12:38 AM,48.2,48.2,100,30.01,0.5,Calm,Calm,-,0.00,,Light Drizzle,0,2013-01-14 05:38:00
12:51 AM,48.2,48.2,100,30.01,0.5,Calm,Calm,-,N/A,,Light Drizzle,0,2013-01-14 05:51:00
1:51 AM,48.9,48.9,100,30.00,0.5,Calm,Calm,-,0.00,,Light Drizzle,0,2013-01-14 06:51:00
2:51 AM,48.9,48.9,100,30.01,0.5,Calm,Calm,-,0.00,,Light Drizzle,0,2013-01-14 07:51:00
3:51 AM,48.9,48.9,100,30.00,0.5,Calm,Calm,-,0.00,Fog,Light Drizzle,0,2013-01-14 08:51:00
4:10 AM,48.2,48.2,100,30.00,0.5,Calm,Calm,-,0.00,Fog,Light Drizzle,0,2013-01-14 09:10:00
4:21 AM,50.0,48.2,94,30.00,0.5,Calm,Calm,-,0.00,Fog,Light Drizzle,0,2013-01-14 09:21:00
4:51 AM,48.9,48.9,100,29.99,0.5,Calm,Calm,-,0.00,Fog,Light Drizzle,0,2013-01-14 09:51:00
5:51 AM,48.9,48.9,100,29.95,0.5,SE,3.5,-,0.00,Fog,Light Drizzle,140,2013-01-14 10:51:00
6:51 AM,51.1,51.1,100,30.01,0.5,Variable,3.5,18.4,0.00,,Light Drizzle,0,2013-01-14 11:51:00
7:02 AM,51.8,51.8,100,30.01,0.5,WNW,6.9,-,0.00,,Overcast,290,2013-01-14 12:02:00
7:36 AM,51.8,51.8,100,30.04,2.5,West,6.9,-,0.00,,Overcast,280,2013-01-14 12:36:00
7:51 AM,51.1,51.1,100,30.03,2.5,WSW,5.8,-,0.00,,Overcast,250,2013-01-14 12:51:00
8:51 AM,52.0,51.1,97,30.06,2.5,West,4.6,-,N/A,,Overcast,260,2013-01-14 13:51:00
9:04 AM,51.8,51.8,100,30.06,3.0,WSW,5.8,-,N/A,,Overcast,240,2013-01-14 14:04:00
9:34 AM,53.6,51.8,94,30.06,3.0,SW,4.6,-,N/A,,Mostly Cloudy,230,2013-01-14 14:34:00
9:38 AM,53.6,51.8,94,30.06,6.0,SW,5.8,-,N/A,,Mostly Cloudy,230,2013-01-14 14:38:00
9:51 AM,53.1,52.0,96,30.07,6.0,WSW,3.5,-,N/A,,Mostly Cloudy,250,2013-01-14 14:51:00
10:51 AM,55.9,53.1,90,30.08,8.0,West,5.8,-,N/A,,Mostly Cloudy,270,2013-01-14 15:51:00
11:51 AM,57.9,50.0,75,30.08,9.0,NW,11.5,-,N/A,,Mostly Cloudy,320,2013-01-14 16:51:00
12:51 PM,55.9,45.0,67,30.07,10.0,NNW,11.5,-,N/A,,Mostly Cloudy,340,2013-01-14 17:51:00
1:51 PM,57.0,44.1,62,30.09,10.0,NW,10.4,17.3,N/A,,Mostly Cloudy,320,2013-01-14 18:51:00
2:51 PM,55.9,37.9,51,30.12,10.0,NNW,12.7,20.7,N/A,,Mostly Cloudy,340,2013-01-14 19:51:00
3:51 PM,55.0,39.0,55,30.15,10.0,North,13.8,-,N/A,,Mostly Cloudy,350,2013-01-14 20:51:00
4:51 PM,53.1,30.9,43,30.15,10.0,NW,15.0,27.6,N/A,,Mostly Cloudy,320,2013-01-14 21:51:00
5:51 PM,51.1,30.9,46,30.18,10.0,NNW,10.4,-,N/A,,Mostly Cloudy,330,2013-01-14 22:51:00
6:51 PM,51.1,30.0,44,30.19,10.0,NNW,11.5,18.4,N/A,,Overcast,330,2013-01-14 23:51:00
7:51 PM,48.9,28.0,44,30.26,10.0,NW,11.5,-,N/A,,Overcast,320,2013-01-15 00:51:00
8:51 PM,48.0,27.0,44,30.26,10.0,NNW,12.7,-,N/A,,Overcast,330,2013-01-15 01:51:00
9:51 PM,44.1,30.9,60,30.27,10.0,NNW,17.3,-,0.00,Rain,Light Rain,330,2013-01-15 02:51:00
10:51 PM,41.0,35.1,79,30.29,10.0,NNW,11.5,-,0.04,Rain,Light Rain,340,2013-01-15 03:51:00
11:51 PM,41.0,36.0,82,30.29,10.0,North,8.1,-,0.02,Rain,Light Rain,350,2013-01-15 04:51:00